createdAt,value
2023-05-20T00:00:49.837Z,100.00
2023-05-20T00:03:17.627Z,100.00
2023-05-20T00:05:44.954Z,100.00
2023-05-20T00:08:12.204Z,100.00
2023-05-20T00:10:39.957Z,100.00
2023-05-20T00:13:07.381Z,100.00
2023-05-20T00:15:35.078Z,100.00
2023-05-20T00:18:04.395Z,100.00
2023-05-20T00:20:32.667Z,100.00
2023-05-20T00:22:59.694Z,100.00
2023-05-20T00:25:26.760Z,100.00
2023-05-20T00:27:53.692Z,100.00
2023-05-20T00:30:20.903Z,100.00
2023-05-20T00:32:48.147Z,100.00
2023-05-20T00:35:15.120Z,100.00
2023-05-20T00:37:42.007Z,100.00
2023-05-20T00:40:09.576Z,100.00
2023-05-20T00:42:36.533Z,100.00
2023-05-20T00:45:03.529Z,100.00
2023-05-20T00:47:36.875Z,100.00
2023-05-20T00:50:04.768Z,100.00
2023-05-20T00:52:33.130Z,100.00
2023-05-20T00:55:00.525Z,100.00
2023-05-20T00:57:27.952Z,100.00
2023-05-20T00:59:55.247Z,100.00
2023-05-20T01:02:23.547Z,100.00
2023-05-20T01:04:50.551Z,100.00
2023-05-20T01:07:18.848Z,100.00
2023-05-20T01:09:46.156Z,100.00
2023-05-20T01:12:29.839Z,100.00
2023-05-20T01:15:07.294Z,100.00
2023-05-20T01:17:46.977Z,100.00
2023-05-20T01:20:15.562Z,100.00
2023-05-20T01:22:55.956Z,100.00
2023-05-20T01:25:23.206Z,100.00
2023-05-20T01:27:51.251Z,100.00
2023-05-20T01:30:18.491Z,100.00
2023-05-20T01:32:53.210Z,100.00
2023-05-20T01:35:22.019Z,100.00
2023-05-20T01:37:51.122Z,100.00
2023-05-20T01:40:19.500Z,100.00
2023-05-20T01:42:53.318Z,100.00
2023-05-20T01:45:21.049Z,100.00
2023-05-20T01:47:48.459Z,100.00
2023-05-20T01:50:15.481Z,100.00
2023-05-20T01:52:42.581Z,100.00
2023-05-20T01:55:10.259Z,100.00
2023-05-20T01:57:37.288Z,100.00
2023-05-20T02:00:04.885Z,100.00
2023-05-20T02:02:31.862Z,100.00
2023-05-20T02:04:58.865Z,100.00
2023-05-20T02:07:25.830Z,100.00
2023-05-20T02:09:52.770Z,100.00
2023-05-20T02:12:19.721Z,100.00
2023-05-20T02:14:48.374Z,100.00
2023-05-20T02:17:17.585Z,100.00
2023-05-20T02:19:46.156Z,100.00
2023-05-20T02:22:14.282Z,100.00
2023-05-20T02:24:41.905Z,100.00
2023-05-20T02:27:08.922Z,100.00
2023-05-20T02:29:35.840Z,100.00
2023-05-20T02:32:02.982Z,100.00
2023-05-20T02:34:31.838Z,100.00
2023-05-20T02:36:58.974Z,100.00
2023-05-20T02:39:26.161Z,100.00
2023-05-20T02:41:53.131Z,100.00
2023-05-20T02:44:20.237Z,100.00
2023-05-20T02:46:47.219Z,100.00
2023-05-20T02:49:14.157Z,100.00
2023-05-20T02:51:41.164Z,100.00
2023-05-20T02:54:08.143Z,100.00
2023-05-20T02:56:35.149Z,100.00
2023-05-20T02:59:02.045Z,100.00
2023-05-20T03:01:29.804Z,100.00
2023-05-20T03:03:56.808Z,100.00
2023-05-20T03:06:23.824Z,100.00
2023-05-20T03:08:50.770Z,100.00
2023-05-20T03:11:17.706Z,100.00
2023-05-20T03:13:44.646Z,100.00
2023-05-20T03:16:13.356Z,100.00
2023-05-20T03:18:41.065Z,100.00
2023-05-20T03:21:08.163Z,100.00
2023-05-20T03:23:35.705Z,100.00
2023-05-20T03:26:03.698Z,100.00
2023-05-20T03:28:30.692Z,100.00
2023-05-20T03:30:57.648Z,100.00
2023-05-20T03:33:26.493Z,100.00
2023-05-20T03:35:53.461Z,100.00
2023-05-20T03:38:20.504Z,100.00
2023-05-20T03:40:47.429Z,100.00
2023-05-20T03:43:14.425Z,100.00
2023-05-20T03:45:41.436Z,100.00
2023-05-20T03:48:08.518Z,100.00
2023-05-20T03:50:35.908Z,100.00
2023-05-20T03:53:02.948Z,100.00
2023-05-20T03:55:29.899Z,100.00
2023-05-20T03:57:57.227Z,100.00
2023-05-20T04:00:24.404Z,100.00
2023-05-20T04:02:51.457Z,100.00
2023-05-20T04:05:18.788Z,100.00
2023-05-20T04:07:45.814Z,100.00
2023-05-20T04:10:12.984Z,100.00
2023-05-20T04:12:40.025Z,100.00
2023-05-20T04:15:07.992Z,100.00
2023-05-20T04:17:37.929Z,100.00
2023-05-20T04:20:07.479Z,100.00
2023-05-20T04:22:35.126Z,100.00
2023-05-20T04:25:03.948Z,100.00
2023-05-20T04:27:31.619Z,100.00
2023-05-20T04:29:58.996Z,100.00
2023-05-20T04:32:27.106Z,100.00
2023-05-20T04:34:56.326Z,100.00
2023-05-20T04:37:23.306Z,100.00
2023-05-20T04:39:51.365Z,100.00
2023-05-20T04:42:19.381Z,100.00
2023-05-20T04:44:46.457Z,100.00
2023-05-20T04:47:14.177Z,100.00
2023-05-20T04:49:41.552Z,100.00
2023-05-20T04:52:08.653Z,100.00
2023-05-20T04:54:35.701Z,100.00
2023-05-20T04:57:03.162Z,100.00
2023-05-20T04:59:30.114Z,100.00
2023-05-20T05:01:57.131Z,100.00
2023-05-20T05:04:24.154Z,100.00
2023-05-20T05:06:51.185Z,100.00
2023-05-20T05:09:18.133Z,100.00
2023-05-20T05:11:45.102Z,100.00
2023-05-20T05:14:12.114Z,100.00
2023-05-20T05:16:39.071Z,100.00
2023-05-20T05:19:06.309Z,100.00
2023-05-20T05:21:33.404Z,100.00
2023-05-20T05:24:00.384Z,97.56
2023-05-20T05:26:27.321Z,95.65
2023-05-20T05:28:55.680Z,94.42
2023-05-20T05:31:22.668Z,92.15
2023-05-20T05:33:49.694Z,89.15
2023-05-20T05:36:17.237Z,87.11
2023-05-20T05:38:44.784Z,86.14
2023-05-20T05:41:11.759Z,83.15
2023-05-20T05:43:38.695Z,80.52
2023-05-20T05:46:05.744Z,79.86
2023-05-20T05:48:32.997Z,78.89
2023-05-20T05:50:59.916Z,76.55
2023-05-20T05:53:27.164Z,76.23
2023-05-20T05:55:54.369Z,74.20
2023-05-20T05:58:21.338Z,73.57
2023-05-20T06:00:53.284Z,72.01
2023-05-20T06:03:20.392Z,71.26
2023-05-20T06:05:50.155Z,70.52
2023-05-20T06:08:17.319Z,70.34
2023-05-20T06:10:51.571Z,69.20
2023-05-20T06:13:19.007Z,68.06
2023-05-20T06:15:46.716Z,67.02
2023-05-20T06:18:13.733Z,66.13
2023-05-20T06:20:41.290Z,65.61
2023-05-20T06:23:08.280Z,63.92
2023-05-20T06:25:35.401Z,62.32
2023-05-20T06:28:02.597Z,61.45
2023-05-20T06:30:29.517Z,59.79
2023-05-20T06:32:56.491Z,59.66
2023-05-20T06:35:23.487Z,58.47
2023-05-20T06:37:50.513Z,58.42
2023-05-20T06:40:17.587Z,59.12
2023-05-20T06:42:44.602Z,59.53
2023-05-20T06:45:12.064Z,57.19
2023-05-20T06:47:39.018Z,58.10
2023-05-20T06:50:06.597Z,58.86
2023-05-20T06:52:33.560Z,58.86
2023-05-20T06:55:00.970Z,59.92
2023-05-20T06:57:27.977Z,59.85
2023-05-20T06:59:54.898Z,59.78
2023-05-20T07:02:22.822Z,60.08
2023-05-20T07:04:50.068Z,59.03
2023-05-20T07:07:17.448Z,58.20
2023-05-20T07:09:44.608Z,59.51
2023-05-20T07:12:11.556Z,60.78
2023-05-20T07:14:38.482Z,59.05
2023-05-20T07:17:06.208Z,60.54
2023-05-20T07:19:34.169Z,60.08
2023-05-20T07:22:01.311Z,60.11
2023-05-20T07:24:28.305Z,59.52
2023-05-20T07:26:55.270Z,59.79
2023-05-20T07:29:22.208Z,60.48
2023-05-20T07:31:49.160Z,60.03
2023-05-20T07:34:16.324Z,60.31
2023-05-20T07:36:44.011Z,59.79
2023-05-20T07:39:14.340Z,59.51
2023-05-20T07:41:42.405Z,60.17
2023-05-20T07:44:13.765Z,60.66
2023-05-20T07:46:42.129Z,59.65
2023-05-20T07:49:09.184Z,59.91
2023-05-20T07:51:36.514Z,59.73
2023-05-20T07:54:03.816Z,59.75
2023-05-20T07:56:30.917Z,59.73
2023-05-20T07:59:00.630Z,59.97
2023-05-20T08:01:27.773Z,59.74
2023-05-20T08:03:55.171Z,60.15
2023-05-20T08:06:24.521Z,58.90
2023-05-20T08:08:51.519Z,57.38
2023-05-20T08:11:18.453Z,56.30
2023-05-20T08:13:45.417Z,54.21
2023-05-20T08:16:12.383Z,52.84
2023-05-20T08:18:39.735Z,53.15
2023-05-20T08:21:10.295Z,53.10
2023-05-20T08:23:40.190Z,53.75
2023-05-20T08:26:07.997Z,53.28
2023-05-20T08:28:37.383Z,53.73
2023-05-20T08:31:04.648Z,54.62
2023-05-20T08:33:31.641Z,54.33
2023-05-20T08:35:58.667Z,53.88
2023-05-20T08:38:25.758Z,53.56
2023-05-20T08:40:57.663Z,53.33
2023-05-20T08:43:25.887Z,53.02
2023-05-20T08:45:53.087Z,53.53
2023-05-20T08:48:26.346Z,52.54
2023-05-20T08:50:54.052Z,52.09
2023-05-20T08:53:23.168Z,51.53
2023-05-20T08:56:03.846Z,49.61
2023-05-20T08:58:31.278Z,49.35
2023-05-20T09:01:01.566Z,48.86
2023-05-20T09:03:29.136Z,48.36
2023-05-20T09:06:06.021Z,47.57
2023-05-20T09:08:33.915Z,48.37
2023-05-20T09:11:01.392Z,48.85
2023-05-20T09:13:32.975Z,48.78
2023-05-20T09:16:02.376Z,49.00
2023-05-20T09:18:29.975Z,48.72
2023-05-20T09:20:57.356Z,48.30
2023-05-20T09:23:25.980Z,46.99
2023-05-20T09:25:53.241Z,47.96
2023-05-20T09:28:25.556Z,48.70
2023-05-20T09:30:59.126Z,49.99
2023-05-20T09:33:30.470Z,48.34
2023-05-20T09:36:10.796Z,47.31
2023-05-20T09:38:40.082Z,47.09
2023-05-20T09:41:12.742Z,46.99
2023-05-20T09:43:43.119Z,47.43
2023-05-20T09:46:11.160Z,47.80
2023-05-20T09:48:38.770Z,48.23
2023-05-20T09:51:08.266Z,47.65
2023-05-20T09:53:36.304Z,45.57
2023-05-20T09:56:03.986Z,46.37
2023-05-20T09:58:31.428Z,46.70
2023-05-20T10:00:58.572Z,47.32
2023-05-20T10:03:28.505Z,46.88
2023-05-20T10:06:36.864Z,46.42
2023-05-20T10:09:21.710Z,46.48
2023-05-20T10:11:57.771Z,47.07
2023-05-20T10:14:51.415Z,47.76
2023-05-20T10:17:30.591Z,47.06
2023-05-20T10:20:01.397Z,47.27
2023-05-20T10:22:30.499Z,47.91
2023-05-20T10:25:07.876Z,48.65
2023-05-20T10:27:48.299Z,47.57
2023-05-20T10:30:22.830Z,47.32
2023-05-20T10:32:57.183Z,46.97
2023-05-20T10:35:28.946Z,47.15
2023-05-20T10:38:10.687Z,47.38
2023-05-20T10:40:38.240Z,47.39
2023-05-20T10:43:14.457Z,47.58
2023-05-20T10:45:50.337Z,47.44
2023-05-20T10:48:31.883Z,47.68
2023-05-20T10:51:06.729Z,47.75
2023-05-20T10:53:42.535Z,49.20
2023-05-20T10:56:24.720Z,48.09
2023-05-20T10:58:54.006Z,46.60
2023-05-20T11:01:26.985Z,46.01
2023-05-20T11:03:58.524Z,44.52
2023-05-20T11:06:29.252Z,43.52
2023-05-20T11:08:56.776Z,44.31
2023-05-20T11:11:24.301Z,44.06
2023-05-20T11:13:53.312Z,42.55
2023-05-20T11:16:23.438Z,42.36
2023-05-20T11:18:51.034Z,41.44
2023-05-20T11:21:20.552Z,42.02
2023-05-20T11:23:47.602Z,42.99
2023-05-20T11:26:14.594Z,43.38
2023-05-20T11:28:41.649Z,43.30
2023-05-20T11:31:08.822Z,42.50
2023-05-20T11:33:35.903Z,42.62
2023-05-20T11:36:06.542Z,43.79
2023-05-20T11:38:38.491Z,44.29
2023-05-20T11:41:05.517Z,44.77
2023-05-20T11:43:34.306Z,44.21
2023-05-20T11:46:01.425Z,43.73
2023-05-20T11:48:28.516Z,43.15
2023-05-20T11:50:57.096Z,43.36
2023-05-20T11:53:25.588Z,42.88
2023-05-20T11:55:58.524Z,43.55
2023-05-20T11:58:29.760Z,44.25
2023-05-20T12:01:05.726Z,44.02
2023-05-20T12:03:40.941Z,45.44
2023-05-20T12:06:08.275Z,43.92
2023-05-20T12:08:35.217Z,43.67
2023-05-20T12:11:02.222Z,43.39
2023-05-20T12:13:29.274Z,44.26
2023-05-20T12:15:56.307Z,43.46
2023-05-20T12:18:23.392Z,43.06
2023-05-20T12:20:50.300Z,43.40
2023-05-20T12:23:17.296Z,44.06
2023-05-20T12:25:47.547Z,43.53
2023-05-20T12:28:14.862Z,42.24
2023-05-20T12:30:42.061Z,41.60
2023-05-20T12:33:09.619Z,41.40
2023-05-20T12:35:39.757Z,42.20
2023-05-20T12:38:07.595Z,40.77
2023-05-20T12:40:35.793Z,41.75
2023-05-20T12:43:04.879Z,42.32
2023-05-20T12:45:32.068Z,42.37
2023-05-20T12:47:59.628Z,41.72
2023-05-20T12:50:27.530Z,42.16
2023-05-20T12:52:54.511Z,42.67
2023-05-20T12:55:21.591Z,41.34
2023-05-20T12:57:49.053Z,40.57
2023-05-20T13:00:16.896Z,40.42
2023-05-20T13:02:44.015Z,40.52
2023-05-20T13:05:11.722Z,41.41
2023-05-20T13:07:38.888Z,40.25
2023-05-20T13:10:07.747Z,40.84
2023-05-20T13:12:35.649Z,40.51
2023-05-20T13:15:03.440Z,39.90
2023-05-20T13:17:30.786Z,40.62
2023-05-20T13:19:58.597Z,40.39
2023-05-20T13:22:25.526Z,40.59
2023-05-20T13:24:52.523Z,40.34
2023-05-20T13:27:19.479Z,41.31
2023-05-20T13:29:46.652Z,41.08
2023-05-20T13:32:13.632Z,40.93
2023-05-20T13:34:40.736Z,41.32
2023-05-20T13:37:07.823Z,41.08
2023-05-20T13:39:35.016Z,41.08
2023-05-20T13:42:02.102Z,40.50
2023-05-20T13:44:30.603Z,40.24
2023-05-20T13:46:58.259Z,40.41
2023-05-20T13:49:25.925Z,40.38
2023-05-20T13:51:52.969Z,40.50
2023-05-20T13:54:21.922Z,41.00
2023-05-20T13:56:49.340Z,40.60
2023-05-20T13:59:16.529Z,40.26
2023-05-20T14:01:45.660Z,40.87
2023-05-20T14:04:13.484Z,41.72
2023-05-20T14:06:40.822Z,41.65
2023-05-20T14:09:09.511Z,41.52
2023-05-20T14:11:37.337Z,41.17
2023-05-20T14:14:04.449Z,41.35
2023-05-20T14:16:32.862Z,41.87
2023-05-20T14:19:00.108Z,41.93
2023-05-20T14:21:27.100Z,41.44
2023-05-20T14:23:54.115Z,41.46
2023-05-20T14:26:22.022Z,41.27
2023-05-20T14:28:49.347Z,41.22
2023-05-20T14:31:16.691Z,40.73
2023-05-20T14:33:43.754Z,40.76
2023-05-20T14:36:11.590Z,40.57
2023-05-20T14:38:38.724Z,40.78
2023-05-20T14:41:05.765Z,41.11
2023-05-20T14:43:32.952Z,40.99
2023-05-20T14:46:00.164Z,41.34
2023-05-20T14:48:27.114Z,41.52
2023-05-20T14:50:54.233Z,41.59
2023-05-20T14:53:21.629Z,42.06
2023-05-20T14:55:48.748Z,39.75
2023-05-20T14:58:15.756Z,40.47
2023-05-20T15:00:42.794Z,40.63
2023-05-20T15:03:09.915Z,40.29
2023-05-20T15:05:37.108Z,40.47
2023-05-20T15:08:04.383Z,40.56
2023-05-20T15:10:31.773Z,40.14
2023-05-20T15:12:58.752Z,39.48
2023-05-20T15:15:25.980Z,39.71
2023-05-20T15:17:53.011Z,39.78
2023-05-20T15:20:20.039Z,39.92
2023-05-20T15:22:48.438Z,40.75
2023-05-20T15:25:15.659Z,41.06
2023-05-20T15:27:43.264Z,41.19
2023-05-20T15:30:11.409Z,40.83
2023-05-20T15:32:39.941Z,40.67
2023-05-20T15:35:07.722Z,40.73
2023-05-20T15:37:34.953Z,40.93
2023-05-20T15:40:02.121Z,40.85
2023-05-20T15:42:29.144Z,40.14
2023-05-20T15:44:56.290Z,40.29
2023-05-20T15:47:23.334Z,40.50
2023-05-20T15:49:50.349Z,40.22
2023-05-20T15:52:17.357Z,40.61
2023-05-20T15:54:44.278Z,40.11
2023-05-20T15:57:11.254Z,39.97
2023-05-20T15:59:38.238Z,40.16
2023-05-20T16:02:05.252Z,40.36
2023-05-20T16:04:32.873Z,40.80
2023-05-20T16:06:59.961Z,40.60
2023-05-20T16:09:26.938Z,40.14
2023-05-20T16:11:56.693Z,41.06
2023-05-20T16:14:23.864Z,41.61
2023-05-20T16:16:50.882Z,41.12
2023-05-20T16:19:17.978Z,40.98
2023-05-20T16:21:45.168Z,40.32
2023-05-20T16:24:12.633Z,39.86
2023-05-20T16:26:39.716Z,40.31
2023-05-20T16:29:06.869Z,39.96
2023-05-20T16:31:33.972Z,38.94
2023-05-20T16:34:00.943Z,39.30
2023-05-20T16:36:27.944Z,39.84
2023-05-20T16:38:54.881Z,40.25
2023-05-20T16:41:23.109Z,40.15
2023-05-20T16:43:50.105Z,39.76
2023-05-20T16:46:17.206Z,39.67
2023-05-20T16:48:44.208Z,39.07
2023-05-20T16:51:11.458Z,39.75
2023-05-20T16:53:38.498Z,39.98
2023-05-20T16:56:08.476Z,39.52
2023-05-20T16:58:35.916Z,39.63
2023-05-20T17:01:02.938Z,39.92
2023-05-20T17:03:29.973Z,39.20
2023-05-20T17:05:57.464Z,38.26
2023-05-20T17:08:24.459Z,37.55
2023-05-20T17:10:54.231Z,37.80
2023-05-20T17:13:21.891Z,37.67
2023-05-20T17:15:48.867Z,37.97
2023-05-20T17:18:16.933Z,37.39
2023-05-20T17:20:43.970Z,37.91
2023-05-20T17:23:11.009Z,37.91
2023-05-20T17:25:38.169Z,37.96
2023-05-20T17:28:05.256Z,38.46
2023-05-20T17:30:32.347Z,38.27
2023-05-20T17:32:59.520Z,38.44
2023-05-20T17:35:26.697Z,38.64
2023-05-20T17:37:54.016Z,38.69
2023-05-20T17:40:21.585Z,39.20
2023-05-20T17:42:48.704Z,38.27
2023-05-20T17:45:16.454Z,38.08
2023-05-20T17:47:43.445Z,38.44
2023-05-20T17:50:11.197Z,38.88
2023-05-20T17:52:38.283Z,38.94
2023-05-20T17:55:06.907Z,39.30
2023-05-20T17:57:34.540Z,39.22
2023-05-20T18:00:02.503Z,39.12
2023-05-20T18:02:29.644Z,39.25
2023-05-20T18:04:56.649Z,39.25
2023-05-20T18:07:23.657Z,39.95
2023-05-20T18:09:50.794Z,40.13
2023-05-20T18:12:17.832Z,40.55
2023-05-20T18:14:45.760Z,41.00
2023-05-20T18:17:12.781Z,40.92
2023-05-20T18:19:39.805Z,41.28
2023-05-20T18:22:07.505Z,41.58
2023-05-20T18:24:34.550Z,41.45
2023-05-20T18:27:01.630Z,41.28
2023-05-20T18:29:28.863Z,41.21
2023-05-20T18:31:55.922Z,41.01
2023-05-20T18:34:22.963Z,41.06
2023-05-20T18:36:50.129Z,41.90
2023-05-20T18:39:20.765Z,42.15
2023-05-20T18:41:48.768Z,42.39
2023-05-20T18:44:19.957Z,42.68
2023-05-20T18:46:46.970Z,43.00
2023-05-20T18:49:14.022Z,43.58
2023-05-20T18:51:41.580Z,43.67
2023-05-20T18:54:08.784Z,44.09
2023-05-20T18:56:36.369Z,44.37
2023-05-20T18:59:03.365Z,44.88
2023-05-20T19:01:30.641Z,44.90
2023-05-20T19:03:57.640Z,45.04
2023-05-20T19:06:24.703Z,44.98
2023-05-20T19:08:51.657Z,44.85
2023-05-20T19:11:18.795Z,45.20
2023-05-20T19:13:45.730Z,45.21
2023-05-20T19:16:12.774Z,45.27
2023-05-20T19:18:39.864Z,45.56
2023-05-20T19:21:06.778Z,45.31
2023-05-20T19:23:33.841Z,45.40
2023-05-20T19:26:00.969Z,44.99
2023-05-20T19:28:28.109Z,45.37
2023-05-20T19:30:55.076Z,45.66
2023-05-20T19:33:22.267Z,46.08
2023-05-20T19:35:49.236Z,46.35
2023-05-20T19:38:16.597Z,46.37
2023-05-20T19:40:44.862Z,46.55
2023-05-20T19:43:12.040Z,46.87
2023-05-20T19:45:39.169Z,46.98
2023-05-20T19:48:06.992Z,47.20
2023-05-20T19:50:34.481Z,47.60
2023-05-20T19:53:06.408Z,47.75
2023-05-20T19:55:36.507Z,47.88
2023-05-20T19:58:31.491Z,48.21
2023-05-20T20:00:58.752Z,48.43
2023-05-20T20:03:25.874Z,48.69
2023-05-20T20:05:53.364Z,49.37
2023-05-20T20:08:20.297Z,49.89
2023-05-20T20:10:47.306Z,50.51
2023-05-20T20:13:14.806Z,50.96
2023-05-20T20:15:41.740Z,51.12
2023-05-20T20:18:08.788Z,51.00
2023-05-20T20:20:40.195Z,51.43
2023-05-20T20:23:08.764Z,51.57
2023-05-20T20:25:39.701Z,51.64
2023-05-20T20:28:09.049Z,52.00
2023-05-20T20:30:38.930Z,52.24
2023-05-20T20:33:08.869Z,52.41
2023-05-20T20:35:37.241Z,52.81
2023-05-20T20:38:10.755Z,52.96
2023-05-20T20:40:42.137Z,53.43
2023-05-20T20:43:11.160Z,53.68
2023-05-20T20:45:38.306Z,53.69
2023-05-20T20:48:08.259Z,54.03
2023-05-20T20:50:36.638Z,54.10
2023-05-20T20:53:03.698Z,54.58
2023-05-20T20:55:30.932Z,54.90
2023-05-20T20:57:58.617Z,55.05
2023-05-20T21:00:27.182Z,55.19
2023-05-20T21:02:54.365Z,55.21
2023-05-20T21:05:21.834Z,55.64
2023-05-20T21:07:52.750Z,56.35
2023-05-20T21:10:19.835Z,56.50
2023-05-20T21:12:46.895Z,56.85
2023-05-20T21:15:15.233Z,56.83
2023-05-20T21:17:42.383Z,56.95
2023-05-20T21:20:10.328Z,57.10
2023-05-20T21:22:37.269Z,57.11
2023-05-20T21:25:04.681Z,57.50
2023-05-20T21:27:31.667Z,57.67
2023-05-20T21:29:58.666Z,58.48
2023-05-20T21:32:25.772Z,58.09
2023-05-20T21:34:52.770Z,58.21
2023-05-20T21:37:19.681Z,58.23
2023-05-20T21:39:46.651Z,58.69
2023-05-20T21:42:13.658Z,58.88
2023-05-20T21:44:40.710Z,58.91
2023-05-20T21:47:07.708Z,59.01
2023-05-20T21:49:34.756Z,59.20
2023-05-20T21:52:01.780Z,59.63
2023-05-20T21:54:28.730Z,59.53
2023-05-20T21:56:55.720Z,59.54
2023-05-20T21:59:22.627Z,59.77
2023-05-20T22:01:51.064Z,60.23
2023-05-20T22:04:19.360Z,60.29
2023-05-20T22:06:46.341Z,60.40
2023-05-20T22:09:13.287Z,60.48
2023-05-20T22:11:40.232Z,60.65
2023-05-20T22:14:07.241Z,60.87
2023-05-20T22:16:34.256Z,61.13
2023-05-20T22:19:02.862Z,61.31
2023-05-20T22:21:32.105Z,61.32
2023-05-20T22:24:01.224Z,61.62
2023-05-20T22:26:28.731Z,61.89
2023-05-20T22:28:55.647Z,62.02
2023-05-20T22:31:22.655Z,62.17
2023-05-20T22:33:49.820Z,62.14
2023-05-20T22:36:16.815Z,62.80
2023-05-20T22:38:43.825Z,63.06
2023-05-20T22:41:11.076Z,63.40
2023-05-20T22:43:38.004Z,63.12
2023-05-20T22:46:05.176Z,63.83
2023-05-20T22:48:32.334Z,63.71
2023-05-20T22:50:59.234Z,63.79
2023-05-20T22:53:26.504Z,64.39
2023-05-20T22:55:53.600Z,64.27
2023-05-20T22:58:20.528Z,64.40
2023-05-20T23:00:47.503Z,65.17
2023-05-20T23:03:14.540Z,65.30
2023-05-20T23:05:41.799Z,66.38
2023-05-20T23:08:08.747Z,66.59
2023-05-20T23:10:35.726Z,67.18
2023-05-20T23:13:02.862Z,67.81
2023-05-20T23:15:31.361Z,67.89
2023-05-20T23:17:58.866Z,69.01
2023-05-20T23:20:26.070Z,69.26
2023-05-20T23:22:53.008Z,70.30
2023-05-20T23:25:20.064Z,70.27
2023-05-20T23:27:47.046Z,70.71
2023-05-20T23:30:14.053Z,70.84
2023-05-20T23:32:41.077Z,71.18
2023-05-20T23:35:11.883Z,71.43
2023-05-20T23:37:39.153Z,72.23
2023-05-20T23:40:09.724Z,72.23
2023-05-20T23:42:37.047Z,72.38
2023-05-20T23:45:06.397Z,72.67
2023-05-20T23:47:34.070Z,72.38
2023-05-20T23:50:01.828Z,73.32
2023-05-20T23:52:28.844Z,73.07
2023-05-20T23:54:56.827Z,73.50
2023-05-20T23:57:23.739Z,73.76
2023-05-20T23:59:51.065Z,73.93
